createdAt,value
2022-10-08T00:01:29.025Z,7.40
2022-10-08T00:03:57.781Z,8.07
2022-10-08T00:06:28.118Z,8.77
2022-10-08T00:08:58.546Z,8.77
2022-10-08T00:11:29.683Z,10.33
2022-10-08T00:13:58.654Z,11.63
2022-10-08T00:16:29.536Z,10.30
2022-10-08T00:19:01.070Z,10.73
2022-10-08T00:21:31.485Z,12.40
2022-10-08T00:24:01.422Z,12.57
2022-10-08T00:26:32.727Z,12.27
2022-10-08T00:29:03.061Z,13.07
2022-10-08T00:31:33.113Z,13.00
2022-10-08T00:34:03.716Z,11.80
2022-10-08T00:36:33.107Z,11.93
2022-10-08T00:39:03.019Z,12.90
2022-10-08T00:41:34.385Z,11.37
2022-10-08T00:44:04.304Z,12.67
2022-10-08T00:46:36.659Z,10.43
2022-10-08T00:49:11.942Z,11.07
2022-10-08T00:51:44.109Z,11.60
2022-10-08T00:54:13.381Z,11.57
2022-10-08T00:56:43.263Z,11.70
2022-10-08T00:59:13.694Z,10.93
2022-10-08T01:01:43.463Z,10.97
2022-10-08T01:04:12.959Z,11.77
2022-10-08T01:06:50.493Z,11.03
2022-10-08T01:09:24.351Z,11.67
2022-10-08T01:12:00.246Z,10.37
2022-10-08T01:14:40.330Z,10.70
2022-10-08T01:17:17.855Z,10.80
2022-10-08T01:20:18.382Z,10.00
2022-10-08T01:23:12.114Z,9.20
2022-10-08T01:25:54.030Z,10.23
2022-10-08T01:28:29.663Z,8.90
2022-10-08T01:31:02.863Z,8.60
2022-10-08T01:33:34.725Z,8.90
2022-10-08T01:36:06.282Z,8.13
2022-10-08T01:38:41.055Z,9.07
2022-10-08T01:41:11.471Z,8.30
2022-10-08T01:43:45.018Z,7.80
2022-10-08T01:46:19.279Z,7.63
2022-10-08T01:48:50.200Z,7.57
2022-10-08T01:51:23.364Z,7.47
2022-10-08T01:53:53.213Z,7.40
2022-10-08T01:56:25.794Z,8.10
2022-10-08T01:59:00.044Z,7.03
2022-10-08T02:01:34.029Z,8.00
2022-10-08T02:04:19.672Z,7.87
2022-10-08T02:06:53.159Z,8.40
2022-10-08T02:09:23.345Z,7.60
2022-10-08T02:11:51.127Z,8.10
2022-10-08T02:14:22.068Z,7.93
2022-10-08T02:16:55.991Z,7.07
2022-10-08T02:19:34.521Z,7.10
2022-10-08T02:22:04.749Z,7.20
2022-10-08T02:24:38.746Z,6.53
2022-10-08T02:27:09.778Z,6.70
2022-10-08T02:29:42.735Z,6.77
2022-10-08T02:32:16.184Z,7.33
2022-10-08T02:34:50.343Z,6.83
2022-10-08T02:37:22.835Z,6.73
2022-10-08T02:39:55.904Z,6.10
2022-10-08T02:42:25.525Z,6.43
2022-10-08T02:45:00.769Z,6.67
2022-10-08T02:47:32.686Z,6.27
2022-10-08T02:50:04.740Z,5.50
2022-10-08T02:52:36.097Z,6.93
2022-10-08T02:55:08.691Z,6.47
2022-10-08T02:57:43.288Z,6.33
2022-10-08T03:00:14.181Z,6.77
2022-10-08T03:02:48.012Z,5.77
2022-10-08T03:05:19.639Z,6.20
2022-10-08T03:07:51.524Z,6.00
2022-10-08T03:10:19.887Z,6.27
2022-10-08T03:12:48.757Z,6.20
2022-10-08T03:15:18.201Z,5.90
2022-10-08T03:17:48.264Z,5.57
2022-10-08T03:20:16.128Z,5.70
2022-10-08T03:22:44.734Z,5.60
2022-10-08T03:25:12.681Z,5.87
2022-10-08T03:27:40.451Z,5.70
2022-10-08T03:30:09.386Z,5.67
2022-10-08T03:32:38.513Z,5.87
2022-10-08T03:35:06.631Z,5.43
2022-10-08T03:37:34.481Z,5.37
2022-10-08T03:40:02.297Z,5.03
2022-10-08T03:42:30.062Z,5.03
2022-10-08T03:44:57.792Z,5.23
2022-10-08T03:47:25.687Z,5.03
2022-10-08T03:49:54.965Z,4.93
2022-10-08T03:52:22.751Z,4.40
2022-10-08T03:54:50.473Z,4.53
2022-10-08T03:57:18.216Z,4.87
2022-10-08T03:59:45.951Z,5.00
2022-10-08T04:02:13.706Z,5.13
2022-10-08T04:04:41.498Z,4.77
2022-10-08T04:07:10.678Z,5.03
2022-10-08T04:09:38.431Z,4.67
2022-10-08T04:12:06.305Z,4.53
2022-10-08T04:14:34.121Z,4.83
2022-10-08T04:17:01.844Z,4.70
2022-10-08T04:19:29.561Z,4.83
2022-10-08T04:21:57.289Z,4.93
2022-10-08T04:24:26.414Z,4.87
2022-10-08T04:26:54.295Z,4.53
2022-10-08T04:29:22.067Z,4.60
2022-10-08T04:31:49.847Z,4.37
2022-10-08T04:34:18.372Z,4.47
2022-10-08T04:36:46.139Z,4.87
2022-10-08T04:39:13.863Z,4.70
2022-10-08T04:41:42.973Z,4.40
2022-10-08T04:44:10.764Z,4.70
2022-10-08T04:46:38.665Z,4.70
2022-10-08T04:49:06.539Z,4.77
2022-10-08T04:51:34.293Z,4.93
2022-10-08T04:54:02.807Z,4.23
2022-10-08T04:56:34.691Z,4.10
2022-10-08T04:59:04.922Z,4.20
2022-10-08T05:01:32.730Z,4.40
2022-10-08T05:04:00.860Z,4.30
2022-10-08T05:06:30.512Z,4.30
2022-10-08T05:09:02.461Z,4.20
2022-10-08T05:11:30.964Z,4.00
2022-10-08T05:13:59.821Z,4.20
2022-10-08T05:16:29.230Z,4.13
2022-10-08T05:18:57.481Z,4.23
2022-10-08T05:21:26.895Z,4.33
2022-10-08T05:23:55.643Z,3.93
2022-10-08T05:26:53.119Z,3.90
2022-10-08T05:29:13.709Z,4.00
2022-10-08T05:31:42.895Z,4.27
2022-10-08T05:34:10.890Z,3.80
2022-10-08T05:36:38.736Z,4.27
2022-10-08T05:39:07.329Z,4.00
2022-10-08T05:41:38.471Z,4.23
2022-10-08T05:44:07.447Z,3.57
2022-10-08T05:46:37.385Z,3.93
2022-10-08T05:49:09.220Z,3.90
2022-10-08T05:51:38.464Z,4.30
2022-10-08T05:54:06.394Z,4.00
2022-10-08T05:56:34.318Z,4.23
2022-10-08T05:59:02.063Z,4.10
2022-10-08T06:01:32.174Z,4.13
2022-10-08T06:04:05.674Z,4.00
2022-10-08T06:06:38.630Z,4.33
2022-10-08T06:09:08.058Z,4.47
2022-10-08T06:11:38.026Z,4.23
2022-10-08T06:14:07.146Z,4.30
2022-10-08T06:16:35.880Z,4.10
2022-10-08T06:19:06.643Z,4.33
2022-10-08T06:21:35.852Z,4.10
2022-10-08T06:24:07.545Z,4.50
2022-10-08T06:26:38.622Z,6.27
2022-10-08T06:29:07.296Z,4.97
2022-10-08T06:31:35.378Z,4.00
2022-10-08T06:34:04.862Z,4.00
2022-10-08T06:36:34.596Z,4.10
2022-10-08T06:39:04.529Z,4.00
2022-10-08T06:41:35.005Z,4.20
2022-10-08T06:44:03.995Z,4.20
2022-10-08T06:46:32.720Z,3.97
2022-10-08T06:49:01.744Z,4.13
2022-10-08T06:51:30.473Z,3.83
2022-10-08T06:54:06.636Z,4.03
2022-10-08T06:56:37.858Z,4.00
2022-10-08T06:59:06.199Z,3.83
2022-10-08T07:01:35.017Z,3.63
2022-10-08T07:04:06.921Z,4.20
2022-10-08T07:06:35.188Z,3.80
2022-10-08T07:09:03.415Z,3.90
2022-10-08T07:11:32.381Z,4.53
2022-10-08T07:14:01.903Z,4.77
2022-10-08T07:16:33.005Z,4.37
2022-10-08T07:19:01.364Z,4.00
2022-10-08T07:21:30.250Z,4.13
2022-10-08T07:24:00.146Z,4.03
2022-10-08T07:26:30.671Z,4.17
2022-10-08T07:29:02.425Z,4.03
2022-10-08T07:31:33.401Z,4.33
2022-10-08T07:34:02.985Z,4.40
2022-10-08T07:36:31.241Z,4.07
2022-10-08T07:39:03.830Z,4.03
2022-10-08T07:41:32.197Z,3.77
2022-10-08T07:44:03.035Z,3.90
2022-10-08T07:46:32.226Z,4.10
2022-10-08T07:49:01.485Z,3.60
2022-10-08T07:51:31.311Z,3.40
2022-10-08T07:54:03.743Z,3.67
2022-10-08T07:56:32.591Z,3.30
2022-10-08T07:59:03.049Z,4.00
2022-10-08T08:01:33.363Z,3.70
2022-10-08T08:04:03.271Z,5.07
2022-10-08T08:06:32.997Z,5.70
2022-10-08T08:09:02.111Z,4.27
2022-10-08T08:11:30.997Z,3.73
2022-10-08T08:13:58.979Z,4.30
2022-10-08T08:16:30.231Z,3.73
2022-10-08T08:19:01.140Z,3.83
2022-10-08T08:21:30.709Z,3.40
2022-10-08T08:24:03.401Z,3.57
2022-10-08T08:26:34.031Z,3.77
2022-10-08T08:29:04.113Z,3.40
2022-10-08T08:31:34.932Z,3.17
2022-10-08T08:34:05.602Z,3.50
2022-10-08T08:36:35.771Z,3.30
2022-10-08T08:39:05.355Z,3.57
2022-10-08T08:41:45.822Z,3.53
2022-10-08T08:44:19.761Z,3.30
2022-10-08T08:46:54.868Z,3.60
2022-10-08T08:49:29.378Z,3.30
2022-10-08T08:51:59.249Z,2.97
2022-10-08T08:54:27.336Z,3.63
2022-10-08T08:56:55.817Z,4.27
2022-10-08T08:59:29.385Z,3.80
2022-10-08T09:02:02.189Z,3.87
2022-10-08T09:04:45.046Z,4.70
2022-10-08T09:07:16.218Z,5.03
2022-10-08T09:09:48.976Z,4.07
2022-10-08T09:12:21.105Z,3.70
2022-10-08T09:14:53.959Z,5.20
2022-10-08T09:17:31.591Z,3.70
2022-10-08T09:20:00.534Z,4.27
2022-10-08T09:22:30.478Z,3.70
2022-10-08T09:25:00.834Z,3.73
2022-10-08T09:27:45.311Z,4.00
2022-10-08T09:30:32.785Z,3.60
2022-10-08T09:33:17.486Z,3.87
2022-10-08T09:35:50.443Z,3.67
2022-10-08T09:38:22.537Z,3.80
2022-10-08T09:41:05.694Z,4.43
2022-10-08T09:43:34.675Z,3.77
2022-10-08T09:46:11.571Z,4.07
2022-10-08T09:48:43.237Z,3.73
2022-10-08T09:51:16.296Z,4.00
2022-10-08T09:53:46.238Z,3.70
2022-10-08T09:56:15.916Z,3.33
2022-10-08T09:58:53.884Z,3.40
2022-10-08T10:01:22.450Z,3.90
2022-10-08T10:03:55.120Z,4.67
2022-10-08T10:06:28.108Z,3.60
2022-10-08T10:09:01.453Z,3.73
2022-10-08T10:11:36.485Z,5.40
2022-10-08T10:14:12.168Z,4.90
2022-10-08T10:16:43.846Z,4.83
2022-10-08T10:19:18.218Z,3.70
2022-10-08T10:21:54.911Z,3.70
2022-10-08T10:24:41.011Z,3.50
2022-10-08T10:27:13.211Z,4.23
2022-10-08T10:29:51.042Z,4.17
2022-10-08T10:32:23.806Z,3.47
2022-10-08T10:35:04.641Z,3.90
2022-10-08T10:37:41.550Z,3.47
2022-10-08T10:40:24.949Z,3.97
2022-10-08T10:42:59.465Z,4.03
2022-10-08T10:45:32.169Z,4.17
2022-10-08T10:48:01.092Z,4.10
2022-10-08T10:50:40.471Z,4.50
2022-10-08T10:53:17.347Z,5.20
2022-10-08T10:55:54.794Z,4.40
2022-10-08T10:58:45.265Z,4.20
2022-10-08T11:01:28.264Z,4.20
2022-10-08T11:04:04.360Z,4.53
2022-10-08T11:06:49.576Z,4.30
2022-10-08T11:09:28.384Z,4.93
2022-10-08T11:12:02.706Z,4.60
2022-10-08T11:14:42.600Z,5.00
2022-10-08T11:17:27.377Z,4.40
2022-10-08T11:20:04.451Z,5.00
2022-10-08T11:22:41.564Z,4.53
2022-10-08T11:25:22.046Z,5.07
2022-10-08T11:28:04.092Z,4.90
2022-10-08T11:30:41.711Z,5.37
2022-10-08T11:33:14.019Z,5.10
2022-10-08T11:35:51.101Z,4.70
2022-10-08T11:38:26.928Z,5.47
2022-10-08T11:40:57.610Z,5.40
2022-10-08T11:43:31.013Z,5.13
2022-10-08T11:46:22.982Z,5.20
2022-10-08T11:48:51.603Z,5.80
2022-10-08T11:51:31.778Z,5.87
2022-10-08T11:54:12.431Z,6.07
2022-10-08T11:56:43.026Z,5.80
2022-10-08T11:59:29.840Z,5.10
2022-10-08T12:01:59.445Z,5.20
2022-10-08T12:04:34.758Z,5.23
2022-10-08T12:07:18.436Z,5.90
2022-10-08T12:10:33.978Z,6.60
2022-10-08T12:13:27.686Z,5.80
2022-10-08T12:16:04.787Z,5.90
2022-10-08T12:18:43.812Z,6.10
2022-10-08T12:21:48.391Z,6.30
2022-10-08T12:24:52.649Z,6.67
2022-10-08T12:27:41.839Z,6.60
2022-10-08T12:30:13.881Z,6.47
2022-10-08T12:32:56.740Z,7.00
2022-10-08T12:35:28.618Z,6.20
2022-10-08T12:38:24.043Z,6.40
2022-10-08T12:41:03.531Z,6.23
2022-10-08T12:43:39.862Z,6.40
2022-10-08T12:46:18.727Z,6.13
2022-10-08T12:48:55.022Z,6.60
2022-10-08T12:51:30.553Z,6.17
2022-10-08T12:53:59.675Z,6.17
2022-10-08T12:56:30.390Z,5.67
2022-10-08T12:59:00.621Z,6.30
2022-10-08T13:01:30.385Z,6.77
2022-10-08T13:04:18.177Z,6.10
2022-10-08T13:06:46.425Z,6.00
2022-10-08T13:09:25.219Z,6.37
2022-10-08T13:11:57.141Z,6.03
2022-10-08T13:14:27.817Z,7.20
2022-10-08T13:16:57.962Z,6.93
2022-10-08T13:19:31.474Z,6.17
2022-10-08T13:22:01.370Z,7.07
2022-10-08T13:24:40.807Z,7.10
2022-10-08T13:27:24.312Z,7.50
2022-10-08T13:29:52.367Z,7.87
2022-10-08T13:32:24.179Z,7.80
2022-10-08T13:34:54.716Z,7.83
2022-10-08T13:37:29.038Z,9.03
2022-10-08T13:39:58.888Z,9.57
2022-10-08T13:42:30.141Z,8.87
2022-10-08T13:44:59.752Z,9.57
2022-10-08T13:47:29.583Z,9.67
2022-10-08T13:50:01.816Z,10.33
2022-10-08T13:52:32.404Z,9.90
2022-10-08T13:55:03.325Z,9.50
2022-10-08T13:57:31.298Z,10.30
2022-10-08T13:59:59.392Z,10.60
2022-10-08T14:02:28.737Z,10.87
2022-10-08T14:04:56.597Z,12.13
2022-10-08T14:07:28.830Z,11.13
2022-10-08T14:09:58.680Z,12.67
2022-10-08T14:12:30.173Z,12.43
2022-10-08T14:14:58.201Z,13.17
2022-10-08T14:17:26.288Z,13.67
2022-10-08T14:19:55.513Z,13.67
2022-10-08T14:22:23.759Z,14.63
2022-10-08T14:24:51.845Z,14.13
2022-10-08T14:27:19.666Z,15.93
2022-10-08T14:29:47.661Z,15.67
2022-10-08T14:32:15.534Z,17.13
2022-10-08T14:34:43.423Z,17.10
2022-10-08T14:37:12.940Z,18.17
2022-10-08T14:39:40.780Z,19.50
2022-10-08T14:42:08.756Z,19.60
2022-10-08T14:44:36.630Z,19.20
2022-10-08T14:47:04.578Z,20.00
2022-10-08T14:49:32.667Z,20.60
2022-10-08T14:52:00.603Z,21.53
2022-10-08T14:54:29.822Z,21.97
2022-10-08T14:56:57.811Z,20.93
2022-10-08T14:59:26.007Z,21.37
2022-10-08T15:01:54.020Z,22.07
2022-10-08T15:04:22.098Z,21.67
2022-10-08T15:06:50.126Z,22.20
2022-10-08T15:09:18.153Z,19.60
2022-10-08T15:11:47.437Z,18.77
2022-10-08T15:14:15.654Z,19.67
2022-10-08T15:16:43.962Z,20.10
2022-10-08T15:19:12.338Z,18.87
2022-10-08T15:21:40.296Z,19.97
2022-10-08T15:24:08.467Z,16.73
2022-10-08T15:26:36.492Z,16.27
2022-10-08T15:29:05.948Z,16.40
2022-10-08T15:31:34.239Z,17.97
2022-10-08T15:34:02.305Z,19.27
2022-10-08T15:36:32.517Z,20.43
2022-10-08T15:39:01.979Z,20.40
2022-10-08T15:41:31.864Z,20.40
2022-10-08T15:44:10.811Z,20.87
2022-10-08T15:46:38.990Z,23.57
2022-10-08T15:49:06.970Z,22.23
2022-10-08T15:51:35.098Z,24.93
2022-10-08T15:54:03.409Z,22.70
2022-10-08T15:56:31.848Z,24.80
2022-10-08T15:59:00.911Z,24.47
2022-10-08T16:01:31.132Z,22.27
2022-10-08T16:04:00.065Z,20.43
2022-10-08T16:06:30.170Z,20.20
2022-10-08T16:08:58.763Z,19.37
2022-10-08T16:11:28.774Z,19.23
2022-10-08T16:14:00.420Z,18.80
2022-10-08T16:16:28.874Z,20.60
2022-10-08T16:18:59.387Z,20.30
2022-10-08T16:21:29.294Z,22.07
2022-10-08T16:23:58.541Z,21.97
2022-10-08T16:26:28.867Z,21.37
2022-10-08T16:28:59.566Z,24.30
2022-10-08T16:31:29.690Z,26.13
2022-10-08T16:34:00.492Z,21.87
2022-10-08T16:36:29.811Z,21.03
2022-10-08T16:38:58.649Z,20.93
2022-10-08T16:41:28.203Z,22.10
2022-10-08T16:43:58.075Z,24.87
2022-10-08T16:46:28.410Z,23.07
2022-10-08T16:49:00.488Z,23.70
2022-10-08T16:51:30.792Z,23.10
2022-10-08T16:54:00.877Z,24.80
2022-10-08T16:56:30.755Z,24.40
2022-10-08T16:59:00.836Z,23.90
2022-10-08T17:01:29.294Z,25.77
2022-10-08T17:03:59.015Z,24.27
2022-10-08T17:06:28.002Z,24.43
2022-10-08T17:08:56.139Z,23.47
2022-10-08T17:11:23.981Z,23.37
2022-10-08T17:13:54.004Z,23.20
2022-10-08T17:16:24.027Z,25.17
2022-10-08T17:18:53.057Z,22.40
2022-10-08T17:21:23.415Z,22.57
2022-10-08T17:23:52.033Z,21.23
2022-10-08T17:26:21.970Z,21.47
2022-10-08T17:28:52.844Z,19.83
2022-10-08T17:31:24.280Z,18.00
2022-10-08T17:33:52.691Z,16.83
2022-10-08T17:36:23.748Z,16.50
2022-10-08T17:38:53.713Z,15.30
2022-10-08T17:41:23.091Z,13.00
2022-10-08T17:43:51.694Z,14.43
2022-10-08T17:46:21.101Z,13.37
2022-10-08T17:48:49.284Z,13.10
2022-10-08T17:51:18.744Z,13.70
2022-10-08T17:53:53.137Z,13.07
2022-10-08T17:56:21.843Z,11.67
2022-10-08T17:58:50.157Z,11.43
2022-10-08T18:01:19.712Z,11.07
2022-10-08T18:03:52.083Z,10.43
2022-10-08T18:06:20.182Z,10.23
2022-10-08T18:08:49.403Z,9.70
2022-10-08T18:11:18.027Z,10.53
2022-10-08T18:13:45.832Z,9.80
2022-10-08T18:16:16.011Z,10.07
2022-10-08T18:18:45.177Z,9.30
2022-10-08T18:21:15.087Z,9.30
2022-10-08T18:23:45.976Z,10.00
2022-10-08T18:26:19.021Z,10.20
2022-10-08T18:28:47.885Z,10.60
2022-10-08T18:31:17.276Z,10.70
2022-10-08T18:33:47.123Z,11.30
2022-10-08T18:36:17.179Z,16.17
2022-10-08T18:38:46.726Z,11.60
2022-10-08T18:41:18.053Z,20.03
2022-10-08T18:43:47.708Z,11.27
2022-10-08T18:46:17.002Z,10.93
2022-10-08T18:48:44.918Z,18.73
2022-10-08T18:51:16.707Z,11.63
2022-10-08T18:53:45.636Z,11.27
2022-10-08T18:56:15.986Z,11.80
2022-10-08T18:58:45.515Z,11.50
2022-10-08T19:01:19.552Z,11.83
2022-10-08T19:03:48.916Z,11.33
2022-10-08T19:06:18.010Z,11.93
2022-10-08T19:08:46.960Z,11.83
2022-10-08T19:11:16.553Z,11.53
2022-10-08T19:13:50.371Z,12.27
2022-10-08T19:16:18.536Z,12.30
2022-10-08T19:18:53.665Z,13.87
2022-10-08T19:21:24.992Z,12.80
2022-10-08T19:23:53.770Z,13.53
2022-10-08T19:26:22.988Z,15.13
2022-10-08T19:28:55.423Z,14.20
2022-10-08T19:31:25.903Z,14.40
2022-10-08T19:33:55.548Z,13.63
2022-10-08T19:36:25.237Z,13.33
2022-10-08T19:38:54.359Z,13.97
2022-10-08T19:41:24.819Z,12.03
2022-10-08T19:43:55.341Z,11.20
2022-10-08T19:46:23.929Z,11.07
2022-10-08T19:48:52.730Z,11.17
2022-10-08T19:51:21.188Z,10.87
2022-10-08T19:53:50.050Z,10.53
2022-10-08T19:56:18.840Z,10.87
2022-10-08T19:58:49.017Z,10.30
2022-10-08T20:01:20.449Z,11.50
2022-10-08T20:03:48.737Z,11.33
2022-10-08T20:06:23.238Z,11.57
2022-10-08T20:08:54.557Z,11.47
2022-10-08T20:11:22.531Z,11.27
2022-10-08T20:13:52.228Z,10.90
2022-10-08T20:16:23.597Z,10.60
2022-10-08T20:18:54.035Z,11.20
2022-10-08T20:21:23.384Z,9.73
2022-10-08T20:23:51.289Z,10.07
2022-10-08T20:26:21.622Z,10.00
2022-10-08T20:28:51.360Z,10.77
2022-10-08T20:31:23.000Z,12.67
2022-10-08T20:33:57.648Z,9.37
2022-10-08T20:36:26.294Z,9.83
2022-10-08T20:38:54.484Z,9.90
2022-10-08T20:41:28.075Z,9.57
2022-10-08T20:44:03.862Z,9.10
2022-10-08T20:46:37.351Z,9.27
2022-10-08T20:49:06.006Z,9.57
2022-10-08T20:51:34.693Z,8.77
2022-10-08T20:54:05.439Z,8.60
2022-10-08T20:56:39.315Z,8.10
2022-10-08T20:59:08.727Z,8.60
2022-10-08T21:01:39.576Z,9.40
2022-10-08T21:04:08.778Z,8.40
2022-10-08T21:06:39.301Z,8.70
2022-10-08T21:09:08.357Z,10.00
2022-10-08T21:11:37.899Z,6.50
2022-10-08T21:14:07.678Z,5.87
2022-10-08T21:16:39.700Z,5.80
2022-10-08T21:19:11.052Z,5.10
2022-10-08T21:21:39.441Z,4.87
2022-10-08T21:24:08.083Z,5.47
2022-10-08T21:26:37.912Z,5.97
2022-10-08T21:29:08.057Z,6.17
2022-10-08T21:31:39.296Z,5.63
2022-10-08T21:34:07.739Z,5.70
2022-10-08T21:36:37.439Z,6.27
2022-10-08T21:39:07.939Z,6.67
2022-10-08T21:41:37.516Z,6.90
2022-10-08T21:44:07.676Z,6.07
2022-10-08T21:46:39.421Z,6.73
2022-10-08T21:49:09.524Z,6.63
2022-10-08T21:51:37.952Z,7.33
2022-10-08T21:54:08.933Z,6.73
2022-10-08T21:56:39.608Z,6.77
2022-10-08T21:59:09.611Z,7.10
2022-10-08T22:01:41.471Z,6.83
2022-10-08T22:04:12.439Z,6.73
2022-10-08T22:06:42.373Z,7.00
2022-10-08T22:09:13.073Z,5.93
2022-10-08T22:11:41.307Z,6.40
2022-10-08T22:14:09.748Z,6.23
2022-10-08T22:16:39.774Z,6.43
2022-10-08T22:19:08.136Z,5.70
2022-10-08T22:21:36.727Z,6.30
2022-10-08T22:24:05.166Z,6.30
2022-10-08T22:26:35.373Z,5.70
2022-10-08T22:29:03.551Z,6.33
2022-10-08T22:31:31.449Z,5.97
2022-10-08T22:34:00.973Z,6.20
2022-10-08T22:36:30.806Z,6.70
2022-10-08T22:38:59.987Z,6.57
2022-10-08T22:41:29.946Z,6.67
2022-10-08T22:43:58.146Z,6.83
2022-10-08T22:46:27.981Z,5.80
2022-10-08T22:48:58.471Z,6.20
2022-10-08T22:51:28.535Z,6.27
2022-10-08T22:53:56.766Z,5.73
2022-10-08T22:56:26.342Z,6.50
2022-10-08T22:58:54.120Z,6.33
2022-10-08T23:01:23.522Z,6.07
2022-10-08T23:03:52.091Z,6.30
2022-10-08T23:06:22.282Z,6.30
2022-10-08T23:08:54.657Z,6.43
2022-10-08T23:11:22.645Z,5.97
2022-10-08T23:13:51.396Z,6.20
2022-10-08T23:16:19.253Z,5.90
2022-10-08T23:18:52.779Z,5.83
2022-10-08T23:21:20.487Z,5.60
2022-10-08T23:23:49.397Z,5.87
2022-10-08T23:26:19.245Z,6.57
2022-10-08T23:28:51.019Z,6.00
2022-10-08T23:31:20.789Z,5.90
2022-10-08T23:33:50.479Z,5.77
2022-10-08T23:36:20.136Z,5.93
2022-10-08T23:38:48.263Z,5.90
2022-10-08T23:41:16.089Z,5.40
2022-10-08T23:43:47.123Z,5.50
2022-10-08T23:46:18.014Z,6.60
2022-10-08T23:48:46.397Z,6.17
2022-10-08T23:51:15.392Z,6.60
2022-10-08T23:53:44.535Z,5.87
2022-10-08T23:56:13.882Z,6.17
2022-10-08T23:58:42.063Z,6.10
